Time;durP1;ratioP1;P1;durP2;ratioP2;P2;SDS_P1;SDS_P2;PMS_P1;PMS_P2;Temp;Humidity;BMP_temperature;BMP_pressure;BME280_temperature;BME280_humidity;BME280_pressure;Samples;Min_cycle;Max_cycle;Signal;HPM_P1;HPM_P2
2023/07/17 00:00:22;;;;;;;13.13;3.28;;;18.10;99.90;;;;;;4952324;28;20055;-73
2023/07/17 00:06:47;;;;;;;12.35;2.40;;;18.20;99.90;;;;;;4941354;28;20051;-74
2023/07/17 00:09:46;;;;;;;7.97;2.30;;;18.30;99.90;;;;;;4953559;28;20398;-73
2023/07/17 00:15:42;;;;;;;9.02;2.30;;;18.40;99.90;;;;;;4930207;28;20054;-74
2023/07/17 00:18:31;;;;;;;10.57;2.33;;;18.40;99.90;;;;;;4936835;29;20039;-74
2023/07/17 00:21:15;;;;;;;;;;;;;;;;;;;;;
2023/07/17 00:24:28;;;;;;;10.85;2.28;;;18.40;99.90;;;;;;4952535;28;20070;-73
2023/07/17 00:27:34;;;;;;;11.80;2.25;;;18.50;99.90;;;;;;4928567;28;20642;-73
2023/07/17 00:37:03;;;;;;;7.22;3.05;;;18.40;99.90;;;;;;4935587;28;20126;-73
2023/07/17 00:43:20;;;;;;;9.77;2.58;;;18.50;99.90;;;;;;4943158;28;20154;-73
2023/07/17 00:49:54;;;;;;;;;;;;;;;;;;;;;
2023/07/17 00:53:20;;;;;;;;;;;;;;;;;;;;;
2023/07/17 01:00:01;;;;;;;7.75;2.78;;;17.90;99.90;;;;;;4955926;28;20418;-73
2023/07/17 01:03:18;;;;;;;;;;;;;;;;;;;;;
2023/07/17 01:06:38;;;;;;;;;;;;;;;;;;;;;
2023/07/17 01:13:56;;;;;;;9.77;2.50;;;17.80;99.90;;;;;;4955677;28;20055;-73
2023/07/17 01:16:53;;;;;;;;;;;19.60;99.90;;;;;;4939974;29;20561;-73
2023/07/17 01:20:05;;;;;;;;;;;;;;;;;;;;;
2023/07/17 01:23:17;;;;;;;8.93;2.28;;;17.30;99.90;;;;;;4953538;28;20082;-73
2023/07/17 01:25:52;;;;;;;8.63;2.45;;;17.30;99.90;;;;;;4940913;29;20063;-74
2023/07/17 01:29:05;;;;;;;5.28;1.80;;;17.30;99.90;;;;;;4939131;29;20066;-73
2023/07/17 01:32:12;;;;;;;11.23;2.45;;;17.40;99.90;;;;;;4957407;28;20588;-73
2023/07/17 01:35:14;;;;;;;7.68;2.15;;;17.30;99.90;;;;;;4943454;29;20039;-73
2023/07/17 01:38:13;;;;;;;4.88;2.25;;;17.20;99.90;;;;;;4960867;28;20533;-74
2023/07/17 01:40:50;;;;;;;7.75;2.25;;;17.20;99.90;;;;;;4958136;28;20062;-74
2023/07/17 01:44:22;;;;;;;7.53;2.30;;;17.20;99.90;;;;;;4948358;29;20094;-73
2023/07/17 01:47:42;;;;;;;14.30;2.20;;;17.00;99.90;;;;;;4937594;29;20055;-74
2023/07/17 01:50:37;;;;;;;10.45;2.45;;;17.00;99.90;;;;;;4935050;28;20558;-73
2023/07/17 01:53:47;;;;;;;9.18;2.25;;;17.00;99.90;;;;;;4955811;28;20511;-73
2023/07/17 02:00:24;;;;;;;11.00;2.28;;;17.00;99.90;;;;;;4923282;29;20126;-73
2023/07/17 02:03:41;;;;;;;8.30;2.72;;;17.00;99.90;;;;;;4948924;28;20048;-73
2023/07/17 02:06:41;;;;;;;;;;;;;;;;;;;;;
2023/07/17 02:12:29;;;;;;;9.48;2.75;;;16.80;99.90;;;;;;4954259;28;20043;-73
2023/07/17 02:15:26;;;;;;;11.15;2.85;;;16.70;99.90;;;;;;4939711;28;20047;-74
2023/07/17 02:18:14;;;;;;;12.48;3.53;;;17.00;99.90;;;;;;4953367;28;20047;-73
2023/07/17 02:20:59;;;;;;;8.68;2.63;;;16.80;99.90;;;;;;4938931;29;20110;-74
2023/07/17 02:23:35;;;;;;;9.63;3.42;;;16.70;99.90;;;;;;4938279;28;20074;-73
2023/07/17 02:26:16;;;;;;;9.63;2.63;;;16.70;99.90;;;;;;4942370;29;20470;-73
2023/07/17 02:32:10;;;;;;;9.32;3.10;;;;;;;;;;4954619;28;20047;-73
2023/07/17 02:38:19;;;;;;;7.63;2.80;;;16.50;99.90;;;;;;4953895;28;20079;-73
2023/07/17 02:41:26;;;;;;;8.80;3.10;;;16.50;99.90;;;;;;4939276;29;20568;-73
2023/07/17 02:47:49;;;;;;;13.52;3.72;;;16.50;99.90;;;;;;4946387;28;20039;-73
2023/07/17 02:51:17;;;;;;;5.45;2.50;;;16.50;99.90;;;;;;4939283;28;20047;-73
2023/07/17 02:54:08;;;;;;;11.20;2.83;;;16.30;99.90;;;;;;4953926;28;20075;-74
2023/07/17 03:04:14;;;;;;;10.63;2.85;;;16.40;99.90;;;;;;4935638;28;20043;-73
2023/07/17 03:13:47;;;;;;;;;;;;;;;;;;;;;
2023/07/17 03:17:05;;;;;;;;;;;;;;;;;;;;;
2023/07/17 03:24:26;;;;;;;;;;;;;;;;;;;;;
2023/07/17 03:27:24;;;;;;;10.43;3.60;;;16.40;99.90;;;;;;4954035;28;20107;-74
2023/07/17 03:30:03;;;;;;;10.98;3.13;;;;;;;;;;4953998;28;20118;-73
2023/07/17 03:33:29;;;;;;;14.50;4.18;;;16.30;99.90;;;;;;4938133;28;20054;-72
2023/07/17 03:36:29;;;;;;;21.30;3.65;;;16.40;99.90;;;;;;4939035;29;20043;-73
2023/07/17 03:39:48;;;;;;;9.18;3.13;;;16.20;99.90;;;;;;4927356;28;20203;-73
2023/07/17 03:48:58;;;;;;;;;;;;;;;;;;;;;
2023/07/17 03:51:47;;;;;;;17.02;3.78;;;16.20;99.90;;;;;;4955312;28;20043;-73
2023/07/17 03:57:29;;;;;;;10.80;3.72;;;16.40;99.90;;;;;;4954690;28;20391;-73
2023/07/17 04:00:25;;;;;;;16.10;5.72;;;16.30;99.90;;;;;;4940061;29;20050;-73
2023/07/17 04:03:17;;;;;;;19.75;4.50;;;16.30;99.90;;;;;;4934268;29;20071;-73
2023/07/17 04:05:51;;;;;;;14.68;4.05;;;16.30;99.90;;;;;;4935657;28;20142;-73
2023/07/17 04:08:41;;;;;;;11.32;3.85;;;16.30;99.90;;;;;;4953888;28;20442;-73
2023/07/17 04:11:23;;;;;;;10.57;3.90;;;;;;;;;;4950281;28;20064;-73
2023/07/17 04:14:00;;;;;;;17.17;4.47;;;16.40;99.90;;;;;;4953552;28;20476;-73
2023/07/17 04:16:42;;;;;;;;;;;;;;;;;;;;;
2023/07/17 04:19:36;;;;;;;16.42;3.92;;;16.40;99.90;;;;;;4953644;28;20054;-73
2023/07/17 04:22:17;;;;;;;13.40;3.75;;;;;;;;;;4953112;28;20064;-73
2023/07/17 04:25:05;;;;;;;11.52;3.55;;;;;;;;;;4952841;28;20495;-73
2023/07/17 04:28:03;;;;;;;9.75;3.20;;;16.20;99.90;;;;;;4968223;28;20039;-73
2023/07/17 04:30:48;;;;;;;;;;;;;;;;;;;;;
2023/07/17 04:37:03;;;;;;;;;;;;;;;;;;;;;
2023/07/17 04:41:16;;;;;;;18.80;3.58;;;16.60;99.90;;;;;;4958156;28;20043;-73
2023/07/17 04:43:45;;;;;;;13.70;4.00;;;16.50;99.90;;;;;;4947266;28;20062;-73
2023/07/17 04:47:10;;;;;;;14.10;3.80;;;16.40;99.90;;;;;;4940424;29;20050;-74
2023/07/17 04:50:46;;;;;;;10.30;3.25;;;16.60;99.90;;;;;;4956605;28;20055;-73
2023/07/17 04:53:52;;;;;;;17.05;4.35;;;16.90;99.90;;;;;;4955133;28;20043;-73
2023/07/17 04:56:39;;;;;;;;;;;;;;;;;;;;;
2023/07/17 04:59:55;;;;;;;17.10;3.20;;;16.80;99.90;;;;;;4957751;28;20049;-73
2023/07/17 05:02:54;;;;;;;14.88;4.00;;;17.20;99.90;;;;;;4942497;29;20043;-74
2023/07/17 05:06:37;;;;;;;16.23;3.70;;;17.20;99.90;;;;;;4933493;29;20055;-74
2023/07/17 05:09:29;;;;;;;15.75;5.05;;;17.30;99.90;;;;;;4953298;28;20098;-74
2023/07/17 05:12:46;;;;;;;;;;;;;;;;;;;;;
2023/07/17 05:19:31;;;;;;;15.43;4.18;;;17.50;99.90;;;;;;4889022;28;20472;-74
2023/07/17 05:22:41;;;;;;;17.40;4.60;;;17.40;99.90;;;;;;4939653;29;20085;-74
2023/07/17 05:25:22;;;;;;;12.73;4.57;;;17.60;99.90;;;;;;4939783;29;20055;-73
2023/07/17 05:28:32;;;;;;;19.52;5.15;;;17.50;99.90;;;;;;4955223;28;20035;-74
2023/07/17 05:32:09;;;;;;;;;;;;;;;;;;;;;
2023/07/17 05:35:10;;;;;;;15.48;5.43;;;18.00;99.90;;;;;;4955948;28;20288;-73
2023/07/17 05:38:14;;;;;;;16.98;4.80;;;17.90;99.90;;;;;;4939447;29;20039;-75
2023/07/17 05:41:05;;;;;;;14.50;4.50;;;17.80;99.90;;;;;;4939270;29;20110;-72
2023/07/17 05:44:30;;;;;;;22.70;5.43;;;17.90;99.90;;;;;;4955740;28;20047;-73
2023/07/17 05:47:06;;;;;;;;;;;;;;;;;;;;;
2023/07/17 05:50:13;;;;;;;14.75;5.35;;;17.80;99.90;;;;;;4953061;28;20054;-73
2023/07/17 05:52:50;;;;;;;18.17;5.90;;;18.10;99.90;;;;;;4936615;29;20789;-73
2023/07/17 05:55:57;;;;;;;;;;;;;;;;;;;;;
2023/07/17 05:58:44;;;;;;;15.77;5.10;;;18.30;99.90;;;;;;4933656;29;20050;-71
2023/07/17 06:01:24;;;;;;;17.00;5.18;;;18.70;99.90;;;;;;4939210;29;20051;-73
2023/07/17 06:04:09;;;;;;;;;;;18.50;99.90;;;;;;4942262;29;20043;-72
2023/07/17 06:06:40;;;;;;;11.88;4.70;;;18.40;99.90;;;;;;4938483;28;19926;-72
2023/07/17 06:09:19;;;;;;;16.05;5.55;;;18.50;99.90;;;;;;4933101;29;20058;-72
2023/07/17 06:12:09;;;;;;;17.33;5.80;;;18.60;99.90;;;;;;4935685;29;20058;-72
2023/07/17 06:15:16;;;;;;;;;;;;;;;;;;;;;
2023/07/17 06:17:57;;;;;;;14.63;5.18;;;18.50;99.90;;;;;;4948986;29;20035;-72
2023/07/17 06:20:46;;;;;;;14.77;4.97;;;18.30;99.90;;;;;;4944644;28;20038;-73
2023/07/17 06:24:06;;;;;;;15.90;5.43;;;18.40;99.90;;;;;;4961739;28;20051;-73
2023/07/17 06:26:46;;;;;;;17.55;5.53;;;18.40;99.90;;;;;;4940271;29;20134;-72
2023/07/17 06:29:53;;;;;;;12.63;5.53;;;18.40;99.90;;;;;;4939654;28;20058;-72
2023/07/17 06:35:33;;;;;;;13.05;4.90;;;18.30;99.90;;;;;;4948761;28;20122;-73
2023/07/17 06:38:04;;;;;;;10.57;4.93;;;;;;;;;;4951267;28;20027;-73
2023/07/17 06:40:58;;;;;;;12.80;4.95;;;17.90;99.90;;;;;;4929853;29;20050;-72
2023/07/17 06:43:43;;;;;;;13.32;4.97;;;;;;;;;;4950389;28;20061;-73
2023/07/17 06:46:32;;;;;;;16.60;4.30;;;;;;;;;;4935133;29;20103;-71
2023/07/17 06:49:07;;;;;;;12.18;5.80;;;17.90;99.90;;;;;;4944093;28;20047;-73
2023/07/17 06:52:00;;;;;;;10.18;4.40;;;17.90;99.90;;;;;;4939982;29;20118;-72
2023/07/17 06:55:14;;;;;;;;;;;;;;;;;;;;;
2023/07/17 06:58:15;;;;;;;11.73;4.50;;;17.60;99.90;;;;;;4955660;29;20404;-71
2023/07/17 07:01:06;;;;;;;14.65;5.07;;;17.60;99.90;;;;;;4939203;28;20388;-71
2023/07/17 07:03:47;;;;;;;12.45;4.28;;;17.70;99.90;;;;;;4939724;29;20090;-71
2023/07/17 07:06:16;;;;;;;10.13;4.03;;;;;;;;;;4955500;28;20046;-71
2023/07/17 07:12:24;;;;;;;9.15;4.07;;;18.40;99.90;;;;;;4951572;28;20047;-71
2023/07/17 07:14:53;;;;;;;13.57;5.13;;;18.60;99.90;;;;;;4939259;29;20065;-71
2023/07/17 07:17:50;;;;;;;;;;;;;;;;;;;;;
2023/07/17 07:20:19;;;;;;;9.70;4.60;;;;;;;;;;4955084;28;20110;-71
2023/07/17 07:22:56;;;;;;;8.25;3.75;;;19.30;99.90;;;;;;4940515;29;20513;-70
2023/07/17 07:26:00;;;;;;;;;;;;;;;;;;;;;
2023/07/17 07:28:58;;;;;;;9.98;4.28;;;19.10;99.90;;;;;;4957853;28;20047;-71
2023/07/17 07:34:38;;;;;;;15.38;4.97;;;19.40;99.90;;;;;;4930774;28;20051;-71
2023/07/17 07:37:10;;;;;;;17.50;4.50;;;19.70;99.90;;;;;;4955503;29;20142;-72
2023/07/17 07:40:36;;;;;;;;;;;;;;;;;;;;;
2023/07/17 07:43:53;;;;;;;;;;;;;;;;;;;;;
2023/07/17 07:49:43;;;;;;;9.32;3.78;;;20.40;99.90;;;;;;4953160;29;20039;-72
2023/07/17 07:52:12;;;;;;;7.22;3.10;;;;;;;;;;4938544;29;20130;-72
2023/07/17 07:58:30;;;;;;;9.20;3.28;;;20.50;99.90;;;;;;4949203;28;20084;-71
2023/07/17 08:02:08;;;;;;;;;;;;;;;;;;;;;
2023/07/17 08:05:37;;;;;;;;;;;;;;;;;;;;;
2023/07/17 08:12:10;;;;;;;;;;;;;;;;;;;;;
2023/07/17 08:15:13;;;;;;;8.02;2.63;;;19.20;99.90;;;;;;4906409;29;20104;-71
2023/07/17 08:17:39;;;;;;;9.77;3.03;;;;;;;;;;4936362;23;20440;-75
2023/07/17 08:20:06;;;;;;;8.25;3.25;;;19.70;99.90;;;;;;4935584;29;20043;-75
2023/07/17 08:22:32;;;;;;;6.35;3.13;;;19.30;99.90;;;;;;4935887;29;20082;-75
2023/07/17 08:24:58;;;;;;;9.57;3.25;;;;;;;;;;4923482;29;20063;-75
2023/07/17 08:27:26;;;;;;;9.93;2.60;;;19.40;99.90;;;;;;4923181;29;20039;-76
2023/07/17 08:29:52;;;;;;;9.88;3.13;;;;;;;;;;4947662;28;20086;-75
2023/07/17 08:32:17;;;;;;;8.70;2.92;;;19.60;99.90;;;;;;4948109;29;20043;-75
2023/07/17 08:34:45;;;;;;;7.88;3.22;;;20.10;99.90;;;;;;4946168;29;20032;-75
2023/07/17 08:37:12;;;;;;;10.45;2.65;;;;;;;;;;4930865;29;20038;-75
2023/07/17 08:39:37;;;;;;;4.68;2.17;;;20.20;99.90;;;;;;4941222;28;20040;-74
2023/07/17 08:42:03;;;;;;;8.57;2.75;;;20.10;99.90;;;;;;4937268;29;20381;-74
2023/07/17 08:44:30;;;;;;;5.85;2.97;;;19.90;99.90;;;;;;4939125;29;20062;-73
2023/07/17 08:46:56;;;;;;;10.02;2.90;;;20.10;99.90;;;;;;4952308;29;20047;-72
2023/07/17 08:49:24;;;;;;;11.77;3.25;;;20.10;99.90;;;;;;4955615;29;20058;-72
2023/07/17 08:51:51;;;;;;;4.32;2.35;;;19.80;99.90;;;;;;4939816;29;20043;-72
2023/07/17 08:54:18;;;;;;;7.90;2.63;;;19.70;99.90;;;;;;4955627;28;20062;-72
2023/07/17 08:56:44;;;;;;;7.95;2.30;;;20.10;99.90;;;;;;4955784;28;20134;-71
2023/07/17 08:59:10;;;;;;;10.38;2.33;;;20.10;99.90;;;;;;4955167;28;20050;-71
2023/07/17 09:01:36;;;;;;;6.32;2.25;;;20.10;99.90;;;;;;4946621;29;20042;-71
2023/07/17 09:04:03;;;;;;;7.20;2.15;;;20.30;99.90;;;;;;4921094;29;20490;-71
2023/07/17 09:06:30;;;;;;;7.93;2.83;;;20.60;99.90;;;;;;4936545;29;20244;-71
2023/07/17 09:08:55;;;;;;;10.20;2.35;;;21.00;99.90;;;;;;4936053;29;20038;-71
2023/07/17 09:11:21;;;;;;;6.25;2.40;;;21.20;99.90;;;;;;4920301;29;20447;-71
2023/07/17 09:13:49;;;;;;;5.05;2.13;;;21.10;99.90;;;;;;4938734;29;20031;-71
2023/07/17 09:16:17;;;;;;;6.10;2.13;;;20.90;99.90;;;;;;4945096;29;20091;-70
2023/07/17 09:18:43;;;;;;;8.73;2.63;;;21.30;99.90;;;;;;4955264;28;20035;-70
2023/07/17 09:21:12;;;;;;;6.53;2.10;;;21.40;99.90;;;;;;4939737;29;20109;-71
2023/07/17 09:23:55;;;;;;;7.55;2.20;;;21.80;99.90;;;;;;4954990;28;20048;-71
2023/07/17 09:26:23;;;;;;;6.22;2.42;;;21.40;99.90;;;;;;4955306;28;20490;-70
2023/07/17 09:28:57;;;;;;;14.25;2.05;;;21.60;99.90;;;;;;4955060;28;20043;-70
2023/07/17 09:31:27;;;;;;;6.80;2.28;;;21.80;99.90;;;;;;4955238;29;20518;-70
2023/07/17 09:34:00;;;;;;;7.50;2.50;;;21.60;99.90;;;;;;4939210;29;20116;-71
2023/07/17 09:36:26;;;;;;;7.00;2.75;;;21.60;99.90;;;;;;4938859;28;20050;-73
2023/07/17 09:38:54;;;;;;;9.05;2.38;;;21.60;99.90;;;;;;4955054;28;20387;-71
2023/07/17 09:41:24;;;;;;;6.70;2.30;;;21.40;99.90;;;;;;4938670;29;20039;-70
2023/07/17 09:44:04;;;;;;;7.07;2.17;;;22.00;99.90;;;;;;4954710;29;20046;-70
2023/07/17 09:46:37;;;;;;;7.10;2.28;;;21.20;99.90;;;;;;4956714;28;20039;-71
2023/07/17 09:49:09;;;;;;;6.45;1.85;;;21.30;99.90;;;;;;4954265;28;20039;-71
2023/07/17 09:51:36;;;;;;;7.80;1.98;;;21.50;99.90;;;;;;4938770;29;20135;-71
2023/07/17 09:54:03;;;;;;;6.25;2.20;;;21.30;99.90;;;;;;4939078;29;20051;-70
2023/07/17 09:56:30;;;;;;;8.18;3.30;;;21.20;99.90;;;;;;4954906;28;20396;-71
2023/07/17 09:59:18;;;;;;;14.68;3.72;;;20.80;99.90;;;;;;4954407;28;20538;-71
2023/07/17 10:01:47;;;;;;;7.97;2.15;;;20.90;99.90;;;;;;4955081;29;20043;-70
2023/07/17 10:04:21;;;;;;;7.88;2.22;;;20.90;99.90;;;;;;4954426;28;20054;-71
2023/07/17 10:06:48;;;;;;;4.35;2.33;;;21.00;99.90;;;;;;4956070;28;20049;-71
2023/07/17 10:09:17;;;;;;;5.63;2.30;;;21.20;99.90;;;;;;4955112;28;20032;-70
2023/07/17 10:11:44;;;;;;;8.07;2.47;;;21.20;99.90;;;;;;4955902;28;20039;-70
2023/07/17 10:14:10;;;;;;;7.93;2.25;;;21.00;99.90;;;;;;4970767;28;20043;-70
2023/07/17 10:16:36;;;;;;;10.18;2.17;;;21.00;99.90;;;;;;4954400;28;20043;-70
2023/07/17 10:19:02;;;;;;;8.82;2.40;;;21.00;99.90;;;;;;4955272;28;20049;-72
2023/07/17 10:21:28;;;;;;;5.43;2.33;;;;;;;;;;4954129;29;20043;-71
2023/07/17 10:24:04;;;;;;;6.57;2.40;;;20.50;99.90;;;;;;4953889;28;20059;-71
2023/07/17 10:26:30;;;;;;;8.00;2.75;;;21.10;99.90;;;;;;4954193;29;20031;-71
2023/07/17 10:28:56;;;;;;;9.27;2.45;;;21.60;99.90;;;;;;4953737;28;20038;-71
2023/07/17 10:31:23;;;;;;;6.32;2.28;;;21.80;99.90;;;;;;4938255;29;20054;-73
2023/07/17 10:33:58;;;;;;;7.18;2.35;;;21.70;99.90;;;;;;4954632;28;20097;-71
2023/07/17 10:36:42;;;;;;;14.05;3.05;;;22.00;99.90;;;;;;4948051;28;20050;-71
2023/07/17 10:39:14;;;;;;;7.78;2.65;;;22.50;99.90;;;;;;4938846;28;20098;-70
2023/07/17 10:41:41;;;;;;;7.93;2.72;;;22.00;99.90;;;;;;4942407;29;20455;-71
2023/07/17 10:44:08;;;;;;;7.55;2.83;;;22.20;99.90;;;;;;4943032;28;20414;-70
2023/07/17 10:46:36;;;;;;;8.82;2.67;;;20.40;99.90;;;;;;4944954;28;20050;-70
2023/07/17 10:49:10;;;;;;;6.63;2.65;;;22.10;99.90;;;;;;4923414;29;20106;-71
2023/07/17 10:51:47;;;;;;;6.60;2.60;;;22.30;99.90;;;;;;4949112;28;20546;-71
2023/07/17 10:54:17;;;;;;;7.78;2.90;;;21.80;99.90;;;;;;4953583;28;20043;-71
2023/07/17 10:56:47;;;;;;;6.53;2.10;;;22.20;99.90;;;;;;4937986;29;20047;-70
2023/07/17 10:59:19;;;;;;;4.35;1.95;;;22.50;99.90;;;;;;4953703;28;20109;-70
2023/07/17 11:01:46;;;;;;;4.60;2.67;;;22.40;99.90;;;;;;4953835;28;20408;-72
2023/07/17 11:04:11;;;;;;;6.53;2.63;;;22.50;99.90;;;;;;4916210;29;20730;-74
2023/07/17 11:06:40;;;;;;;4.75;1.98;;;22.40;99.90;;;;;;4914439;29;20095;-74
2023/07/17 11:09:07;;;;;;;4.65;2.63;;;22.60;99.90;;;;;;4914704;29;20078;-74
2023/07/17 11:11:32;;;;;;;7.22;2.35;;;22.70;99.90;;;;;;4936506;29;20044;-74
2023/07/17 11:14:00;;;;;;;8.50;2.22;;;23.00;99.90;;;;;;4909976;29;20582;-74
2023/07/17 11:16:25;;;;;;;7.13;1.77;;;23.00;99.90;;;;;;4917855;29;20047;-74
2023/07/17 11:18:57;;;;;;;5.07;2.05;;;23.10;99.90;;;;;;4914376;29;20122;-74
2023/07/17 11:21:27;;;;;;;4.13;1.58;;;22.60;99.90;;;;;;4925604;29;20495;-74
2023/07/17 11:23:54;;;;;;;6.55;2.17;;;22.60;99.90;;;;;;4934744;29;20430;-74
2023/07/17 11:26:23;;;;;;;5.60;2.30;;;22.40;99.90;;;;;;4934320;29;20055;-74
2023/07/17 11:28:52;;;;;;;5.93;1.67;;;22.60;99.90;;;;;;4933485;29;20048;-74
2023/07/17 11:31:25;;;;;;;5.00;2.50;;;22.70;99.90;;;;;;4934376;29;20279;-74
2023/07/17 11:33:59;;;;;;;5.75;1.85;;;22.90;99.90;;;;;;4933893;29;20052;-75
2023/07/17 11:36:47;;;;;;;5.82;2.17;;;22.10;99.90;;;;;;4934525;29;20042;-74
2023/07/17 11:39:28;;;;;;;6.07;2.13;;;21.70;99.90;;;;;;4914347;29;20135;-74
2023/07/17 11:41:55;;;;;;;5.25;2.25;;;21.60;99.90;;;;;;4915165;29;20048;-75
2023/07/17 11:44:27;;;;;;;8.38;2.17;;;21.80;99.90;;;;;;4914797;29;20051;-74
2023/07/17 11:47:04;;;;;;;5.68;2.45;;;22.10;99.90;;;;;;4914853;29;20047;-75
2023/07/17 11:49:30;;;;;;;7.85;2.50;;;22.20;99.90;;;;;;4914755;29;20032;-74
2023/07/17 11:51:57;;;;;;;4.68;2.15;;;22.40;99.90;;;;;;4914730;29;20044;-75
2023/07/17 11:54:38;;;;;;;5.88;2.38;;;22.60;99.90;;;;;;4939762;28;20187;-73
2023/07/17 11:57:04;;;;;;;6.07;2.30;;;22.60;99.90;;;;;;4952749;28;20047;-74
2023/07/17 11:59:30;;;;;;;6.53;2.22;;;22.80;99.90;;;;;;4918294;29;20054;-74
2023/07/17 12:01:56;;;;;;;5.10;1.90;;;23.30;99.90;;;;;;4932881;29;20518;-74
2023/07/17 12:04:28;;;;;;;11.00;2.63;;;22.50;99.90;;;;;;4932982;29;20043;-74
2023/07/17 12:06:55;;;;;;;6.83;2.10;;;23.20;99.70;;;;;;4933475;29;20060;-74
2023/07/17 12:09:22;;;;;;;4.30;1.80;;;23.30;99.90;;;;;;4917347;29;20509;-74
2023/07/17 12:11:48;;;;;;;5.63;1.77;;;23.30;99.90;;;;;;4933695;29;20035;-74
2023/07/17 12:14:15;;;;;;;4.95;1.77;;;23.40;99.10;;;;;;4933384;29;20058;-74
2023/07/17 12:16:41;;;;;;;6.88;1.77;;;23.30;99.30;;;;;;4934432;29;20044;-74
2023/07/17 12:19:09;;;;;;;8.15;1.65;;;23.30;99.60;;;;;;4932940;28;20439;-74
2023/07/17 12:21:35;;;;;;;5.50;2.38;;;23.30;99.70;;;;;;4934810;29;20040;-75
2023/07/17 12:24:01;;;;;;;6.50;2.53;;;23.80;99.50;;;;;;4934616;29;20070;-74
2023/07/17 12:26:27;;;;;;;4.63;2.08;;;23.30;99.00;;;;;;4935627;29;20130;-74
2023/07/17 12:28:52;;;;;;;4.35;2.33;;;23.50;99.60;;;;;;4935245;29;20043;-74
2023/07/17 12:31:18;;;;;;;5.53;1.70;;;23.60;99.30;;;;;;4933159;29;20043;-74
2023/07/17 12:33:54;;;;;;;5.68;2.30;;;23.50;99.60;;;;;;4933621;29;20043;-74
2023/07/17 12:36:20;;;;;;;8.40;2.17;;;22.90;98.90;;;;;;4945598;28;20122;-74
2023/07/17 12:38:45;;;;;;;5.13;1.70;;;23.30;98.90;;;;;;4952086;29;20103;-74
2023/07/17 12:41:12;;;;;;;5.55;2.20;;;23.20;99.20;;;;;;4952431;28;20108;-75
2023/07/17 12:43:40;;;;;;;7.70;2.08;;;23.70;99.60;;;;;;4952336;28;20517;-74
2023/07/17 12:46:06;;;;;;;4.03;1.98;;;21.40;98.80;;;;;;4952369;28;20046;-74
2023/07/17 12:48:31;;;;;;;4.38;1.85;;;23.30;99.80;;;;;;4954159;28;20039;-75
2023/07/17 12:51:00;;;;;;;10.68;2.40;;;23.60;99.90;;;;;;4948448;28;20077;-74
2023/07/17 12:53:25;;;;;;;6.93;2.13;;;23.90;99.70;;;;;;4950136;28;20585;-75
2023/07/17 12:55:56;;;;;;;5.30;1.75;;;23.80;99.40;;;;;;4957105;28;20070;-74
2023/07/17 12:58:22;;;;;;;2.95;1.45;;;24.00;99.00;;;;;;4940173;28;20039;-75
2023/07/17 13:00:47;;;;;;;8.77;2.65;;;23.60;99.00;;;;;;4951419;29;20115;-74
2023/07/17 13:03:13;;;;;;;5.03;1.83;;;23.20;98.90;;;;;;4936398;29;20039;-74
2023/07/17 13:05:39;;;;;;;4.10;1.52;;;23.10;99.90;;;;;;4937699;29;20039;-73
2023/07/17 13:08:05;;;;;;;6.28;2.05;;;22.80;99.90;;;;;;4936355;29;20500;-74
2023/07/17 13:10:30;;;;;;;5.10;1.98;;;22.30;99.90;;;;;;4937559;29;20079;-74
2023/07/17 13:12:59;;;;;;;6.00;2.58;;;22.60;99.50;;;;;;4938004;29;20087;-74
2023/07/17 13:15:24;;;;;;;6.88;1.80;;;23.00;99.70;;;;;;4937920;29;20082;-74
2023/07/17 13:18:00;;;;;;;5.80;1.80;;;23.50;99.90;;;;;;4921281;29;20039;-74
2023/07/17 13:20:26;;;;;;;4.13;1.45;;;23.30;99.80;;;;;;4935705;29;20079;-74
2023/07/17 13:22:52;;;;;;;4.78;1.60;;;23.20;99.60;;;;;;4937329;29;20087;-75
2023/07/17 13:25:20;;;;;;;2.88;1.63;;;23.90;99.80;;;;;;4935979;29;20044;-74
2023/07/17 13:27:48;;;;;;;4.93;1.95;;;23.70;99.50;;;;;;4937228;29;20040;-74
2023/07/17 13:30:16;;;;;;;7.22;1.83;;;23.70;99.70;;;;;;4935977;29;20075;-75
2023/07/17 13:32:49;;;;;;;5.28;1.98;;;24.00;99.90;;;;;;4920568;29;20324;-74
2023/07/17 13:35:15;;;;;;;7.05;2.00;;;23.90;99.60;;;;;;4920449;29;20040;-74
2023/07/17 13:37:41;;;;;;;6.45;2.05;;;23.50;99.90;;;;;;4937025;29;20415;-74
2023/07/17 13:40:07;;;;;;;5.82;2.00;;;23.80;99.70;;;;;;4935636;29;20407;-74
2023/07/17 13:42:32;;;;;;;10.82;1.95;;;23.70;99.80;;;;;;4935803;29;20058;-75
2023/07/17 13:44:59;;;;;;;7.05;2.08;;;23.50;99.90;;;;;;4937204;29;20558;-75
2023/07/17 13:47:26;;;;;;;6.47;2.10;;;22.80;99.90;;;;;;4942910;29;20046;-75
2023/07/17 13:49:52;;;;;;;6.47;2.53;;;22.80;99.90;;;;;;4944817;29;20036;-75
2023/07/17 13:52:21;;;;;;;5.63;2.47;;;25.10;99.90;;;;;;4942667;28;20035;-75
2023/07/17 13:54:47;;;;;;;6.70;1.90;;;23.70;99.90;;;;;;4929670;29;20071;-75
2023/07/17 13:57:15;;;;;;;6.72;2.20;;;24.50;99.90;;;;;;4945078;29;20114;-75
2023/07/17 13:59:42;;;;;;;7.78;2.47;;;23.30;99.90;;;;;;4938780;28;20051;-75
2023/07/17 14:02:08;;;;;;;6.03;2.20;;;23.30;99.90;;;;;;4942190;29;20091;-76
2023/07/17 14:04:33;;;;;;;7.30;2.05;;;23.60;99.90;;;;;;4938085;28;20130;-75
2023/07/17 14:06:59;;;;;;;5.03;1.98;;;23.70;99.90;;;;;;4936892;29;20035;-76
2023/07/17 14:09:27;;;;;;;3.83;2.00;;;24.10;99.90;;;;;;4933750;29;20119;-76
2023/07/17 14:11:52;;;;;;;6.65;1.88;;;24.20;99.90;;;;;;4936495;29;20052;-76
2023/07/17 14:14:25;;;;;;;7.15;2.45;;;23.10;99.50;;;;;;4935688;29;20052;-75
2023/07/17 14:16:51;;;;;;;3.20;1.70;;;23.00;99.60;;;;;;4936255;29;20060;-78
2023/07/17 14:19:17;;;;;;;5.95;2.38;;;21.90;99.70;;;;;;4959219;23;20047;-69
2023/07/17 14:21:42;;;;;;;7.28;2.30;;;22.50;99.90;;;;;;4937221;29;20078;-70
2023/07/17 14:24:08;;;;;;;7.32;2.10;;;23.00;99.90;;;;;;4954804;29;20067;-69
2023/07/17 14:26:34;;;;;;;9.07;2.25;;;23.20;99.90;;;;;;4954740;29;20035;-69
2023/07/17 14:28:59;;;;;;;9.52;2.38;;;23.10;99.90;;;;;;4954495;28;20066;-69
2023/07/17 14:31:25;;;;;;;6.93;2.15;;;22.90;99.90;;;;;;4953949;29;20380;-69
2023/07/17 14:33:51;;;;;;;7.88;2.20;;;23.00;99.90;;;;;;4953362;28;20047;-69
2023/07/17 14:36:16;;;;;;;8.82;2.33;;;22.80;99.90;;;;;;4953270;28;20230;-69
2023/07/17 14:38:42;;;;;;;8.50;2.40;;;23.20;99.90;;;;;;4953161;29;20106;-70
2023/07/17 14:41:07;;;;;;;4.88;2.28;;;22.40;99.90;;;;;;4954643;29;20046;-69
2023/07/17 14:43:35;;;;;;;5.68;2.38;;;22.40;99.90;;;;;;4937339;29;20414;-70
2023/07/17 14:46:01;;;;;;;3.83;2.00;;;22.50;99.90;;;;;;4953595;29;20506;-69
2023/07/17 14:48:26;;;;;;;6.65;2.88;;;23.40;99.90;;;;;;4953343;28;20357;-68
2023/07/17 14:50:52;;;;;;;7.03;2.67;;;23.30;99.90;;;;;;4954608;29;20494;-69
2023/07/17 14:53:18;;;;;;;8.82;2.67;;;23.00;99.90;;;;;;4953464;29;20051;-70
2023/07/17 14:55:43;;;;;;;8.65;2.78;;;22.50;99.90;;;;;;4953227;29;20054;-69
2023/07/17 14:58:09;;;;;;;7.22;2.40;;;22.50;99.90;;;;;;4952980;29;20047;-71
2023/07/17 15:00:35;;;;;;;8.00;2.45;;;22.30;99.90;;;;;;4953953;28;20086;-69
2023/07/17 15:03:00;;;;;;;8.73;3.25;;;22.30;99.90;;;;;;4952994;29;20130;-69
2023/07/17 15:05:26;;;;;;;8.98;2.85;;;22.40;99.90;;;;;;4954204;29;20134;-69
2023/07/17 15:07:51;;;;;;;6.43;2.42;;;22.40;99.90;;;;;;4953028;29;20042;-69
2023/07/17 15:10:17;;;;;;;6.15;2.63;;;22.90;99.90;;;;;;4952133;28;20055;-69
2023/07/17 15:12:43;;;;;;;6.53;2.00;;;22.80;99.90;;;;;;4952851;29;20051;-69
2023/07/17 15:15:10;;;;;;;7.05;2.20;;;22.80;99.90;;;;;;4954004;28;20083;-70
2023/07/17 15:17:36;;;;;;;5.47;2.00;;;22.70;99.90;;;;;;4952851;29;20082;-69
2023/07/17 15:20:01;;;;;;;5.80;2.28;;;22.60;99.90;;;;;;4952301;29;20459;-69
2023/07/17 15:22:29;;;;;;;5.45;2.38;;;22.60;99.90;;;;;;4952754;29;20035;-69
2023/07/17 15:24:54;;;;;;;7.72;2.63;;;22.70;99.90;;;;;;4952692;29;20044;-69
2023/07/17 15:27:20;;;;;;;7.20;2.10;;;22.80;99.90;;;;;;4952592;29;20031;-69
2023/07/17 15:29:46;;;;;;;5.63;2.20;;;22.20;99.90;;;;;;4952429;29;20050;-69
2023/07/17 15:32:11;;;;;;;7.75;3.15;;;22.60;99.90;;;;;;4952715;29;20443;-69
2023/07/17 15:34:37;;;;;;;7.70;2.80;;;22.60;99.90;;;;;;4953209;29;20085;-69
2023/07/17 15:37:03;;;;;;;5.03;2.25;;;22.90;99.90;;;;;;4936623;29;20047;-69
2023/07/17 15:39:29;;;;;;;10.85;2.53;;;22.40;99.90;;;;;;4953449;29;20518;-69
2023/07/17 15:41:55;;;;;;;6.72;3.40;;;22.70;99.90;;;;;;4953662;28;20074;-69
2023/07/17 15:44:21;;;;;;;7.72;2.78;;;22.20;99.90;;;;;;4952331;29;20039;-68
2023/07/17 15:46:46;;;;;;;5.28;2.35;;;23.20;99.90;;;;;;4952368;29;20050;-69
2023/07/17 15:49:12;;;;;;;7.03;2.85;;;23.10;99.90;;;;;;4953397;28;20054;-70
2023/07/17 15:51:39;;;;;;;7.95;2.65;;;22.70;99.90;;;;;;4952398;29;20122;-69
2023/07/17 15:54:05;;;;;;;6.00;2.95;;;23.00;99.90;;;;;;4952379;29;20058;-69
2023/07/17 15:56:30;;;;;;;8.88;2.65;;;22.80;99.90;;;;;;4952276;29;20047;-69
2023/07/17 15:58:56;;;;;;;6.78;2.40;;;23.20;99.90;;;;;;4953182;28;20495;-69
2023/07/17 16:01:21;;;;;;;9.85;3.38;;;22.70;99.90;;;;;;4953792;28;20035;-69
2023/07/17 16:03:47;;;;;;;4.25;2.40;;;22.40;99.90;;;;;;4953544;28;20095;-69
2023/07/17 16:06:13;;;;;;;3.88;2.20;;;22.50;99.90;;;;;;4953563;29;20518;-70
2023/07/17 16:08:38;;;;;;;6.03;2.70;;;22.40;99.90;;;;;;4951865;29;20570;-69